sensor_id;sensor_type;location;lat;lon;timestamp;temperature;humidity
12254;DHT22;6189;52.526;13.390;2023-03-31T00:00:50;13.50;99.90
12254;DHT22;6189;52.526;13.390;2023-03-31T00:03:35;13.50;99.90
12254;DHT22;6189;52.526;13.390;2023-03-31T00:06:27;13.60;99.90
12254;DHT22;6189;52.526;13.390;2023-03-31T00:09:14;13.60;99.90
12254;DHT22;6189;52.526;13.390;2023-03-31T00:12:02;13.50;99.90
12254;DHT22;6189;52.526;13.390;2023-03-31T00:14:47;13.40;99.90
12254;DHT22;6189;52.526;13.390;2023-03-31T00:17:34;13.40;99.90
12254;DHT22;6189;52.526;13.390;2023-03-31T00:20:20;13.40;99.90
12254;DHT22;6189;52.526;13.390;2023-03-31T00:23:06;13.30;99.90
12254;DHT22;6189;52.526;13.390;2023-03-31T00:25:54;13.40;99.90
12254;DHT22;6189;52.526;13.390;2023-03-31T00:28:40;13.40;99.90
12254;DHT22;6189;52.526;13.390;2023-03-31T00:31:26;13.40;99.90
12254;DHT22;6189;52.526;13.390;2023-03-31T00:34:13;13.50;99.90
12254;DHT22;6189;52.526;13.390;2023-03-31T00:36:58;13.50;99.90
12254;DHT22;6189;52.526;13.390;2023-03-31T00:39:45;13.50;99.90
12254;DHT22;6189;52.526;13.390;2023-03-31T00:42:31;13.50;99.90
12254;DHT22;6189;52.526;13.390;2023-03-31T00:45:23;13.40;99.90
12254;DHT22;6189;52.526;13.390;2023-03-31T00:48:13;13.30;99.90
12254;DHT22;6189;52.526;13.390;2023-03-31T00:51:04;13.30;99.90
12254;DHT22;6189;52.526;13.390;2023-03-31T00:53:55;13.40;99.90
12254;DHT22;6189;52.526;13.390;2023-03-31T00:56:45;13.40;99.90
12254;DHT22;6189;52.526;13.390;2023-03-31T00:59:36;13.40;99.90
12254;DHT22;6189;52.526;13.390;2023-03-31T01:02:23;13.40;99.90
12254;DHT22;6189;52.526;13.390;2023-03-31T01:05:08;13.50;99.90
12254;DHT22;6189;52.526;13.390;2023-03-31T01:07:57;13.50;99.90
12254;DHT22;6189;52.526;13.390;2023-03-31T01:10:46;13.40;99.90
12254;DHT22;6189;52.526;13.390;2023-03-31T01:13:36;13.30;99.90
12254;DHT22;6189;52.526;13.390;2023-03-31T01:16:23;13.40;99.90
12254;DHT22;6189;52.526;13.390;2023-03-31T01:19:16;13.20;99.90
12254;DHT22;6189;52.526;13.390;2023-03-31T01:22:25;13.20;99.90
12254;DHT22;6189;52.526;13.390;2023-03-31T01:29:01;13.10;99.90
12254;DHT22;6189;52.526;13.390;2023-03-31T01:32:17;13.00;99.90
12254;DHT22;6189;52.526;13.390;2023-03-31T01:38:55;13.00;99.90
12254;DHT22;6189;52.526;13.390;2023-03-31T01:41:56;13.00;99.90
12254;DHT22;6189;52.526;13.390;2023-03-31T01:44:45;12.90;99.90
12254;DHT22;6189;52.526;13.390;2023-03-31T01:47:37;12.90;99.90
12254;DHT22;6189;52.526;13.390;2023-03-31T01:50:28;12.90;99.90
12254;DHT22;6189;52.526;13.390;2023-03-31T01:53:19;12.80;99.90
12254;DHT22;6189;52.526;13.390;2023-03-31T01:56:10;12.80;99.90
12254;DHT22;6189;52.526;13.390;2023-03-31T01:59:01;12.80;99.90
12254;DHT22;6189;52.526;13.390;2023-03-31T02:01:52;12.80;99.90
12254;DHT22;6189;52.526;13.390;2023-03-31T02:04:42;12.70;99.90
12254;DHT22;6189;52.526;13.390;2023-03-31T02:07:34;12.70;99.90
12254;DHT22;6189;52.526;13.390;2023-03-31T02:10:22;12.80;99.90
12254;DHT22;6189;52.526;13.390;2023-03-31T02:13:11;12.90;99.90
12254;DHT22;6189;52.526;13.390;2023-03-31T02:16:02;12.80;99.90
12254;DHT22;6189;52.526;13.390;2023-03-31T02:18:51;12.90;99.90
12254;DHT22;6189;52.526;13.390;2023-03-31T02:21:47;12.80;99.90
12254;DHT22;6189;52.526;13.390;2023-03-31T02:24:34;12.70;99.90
12254;DHT22;6189;52.526;13.390;2023-03-31T02:27:24;12.70;99.90
12254;DHT22;6189;52.526;13.390;2023-03-31T02:30:11;12.80;99.90
12254;DHT22;6189;52.526;13.390;2023-03-31T02:32:59;12.70;99.90
12254;DHT22;6189;52.526;13.390;2023-03-31T02:35:47;12.80;99.90
12254;DHT22;6189;52.526;13.390;2023-03-31T02:38:36;12.80;99.90
12254;DHT22;6189;52.526;13.390;2023-03-31T02:41:23;12.80;99.90
12254;DHT22;6189;52.526;13.390;2023-03-31T02:44:09;12.70;99.90
12254;DHT22;6189;52.526;13.390;2023-03-31T02:46:54;12.90;99.90
12254;DHT22;6189;52.526;13.390;2023-03-31T02:49:44;12.90;99.90
12254;DHT22;6189;52.526;13.390;2023-03-31T02:52:42;12.90;99.90
12254;DHT22;6189;52.526;13.390;2023-03-31T02:55:54;13.10;99.90
12254;DHT22;6189;52.526;13.390;2023-03-31T02:58:55;13.20;99.90
12254;DHT22;6189;52.526;13.390;2023-03-31T03:01:56;13.10;99.90
12254;DHT22;6189;52.526;13.390;2023-03-31T03:05:08;13.10;99.90
12254;DHT22;6189;52.526;13.390;2023-03-31T03:08:06;13.00;99.90
12254;DHT22;6189;52.526;13.390;2023-03-31T03:11:01;13.10;99.90
12254;DHT22;6189;52.526;13.390;2023-03-31T03:13:52;13.20;99.90
12254;DHT22;6189;52.526;13.390;2023-03-31T03:16:42;13.10;99.90
12254;DHT22;6189;52.526;13.390;2023-03-31T03:19:29;13.10;99.90
12254;DHT22;6189;52.526;13.390;2023-03-31T03:22:16;13.10;99.90
12254;DHT22;6189;52.526;13.390;2023-03-31T03:25:02;13.20;99.90
12254;DHT22;6189;52.526;13.390;2023-03-31T03:27:48;13.30;99.90
12254;DHT22;6189;52.526;13.390;2023-03-31T03:30:35;13.20;99.90
12254;DHT22;6189;52.526;13.390;2023-03-31T03:33:21;13.20;99.90
12254;DHT22;6189;52.526;13.390;2023-03-31T03:36:09;13.10;99.90
12254;DHT22;6189;52.526;13.390;2023-03-31T03:38:56;13.10;99.90
12254;DHT22;6189;52.526;13.390;2023-03-31T03:41:41;13.10;99.90
12254;DHT22;6189;52.526;13.390;2023-03-31T03:44:27;13.10;99.90
12254;DHT22;6189;52.526;13.390;2023-03-31T03:47:13;13.20;99.90
12254;DHT22;6189;52.526;13.390;2023-03-31T03:49:58;13.20;99.90
12254;DHT22;6189;52.526;13.390;2023-03-31T03:52:44;13.20;99.90
12254;DHT22;6189;52.526;13.390;2023-03-31T03:55:31;13.10;99.90
12254;DHT22;6189;52.526;13.390;2023-03-31T03:58:17;13.20;99.90
12254;DHT22;6189;52.526;13.390;2023-03-31T04:01:03;13.30;99.90
12254;DHT22;6189;52.526;13.390;2023-03-31T04:03:49;13.30;99.90
12254;DHT22;6189;52.526;13.390;2023-03-31T04:06:35;13.20;99.90
12254;DHT22;6189;52.526;13.390;2023-03-31T04:09:21;13.30;99.90
12254;DHT22;6189;52.526;13.390;2023-03-31T04:12:08;13.30;99.90
12254;DHT22;6189;52.526;13.390;2023-03-31T04:14:53;13.20;99.90
12254;DHT22;6189;52.526;13.390;2023-03-31T04:17:39;13.20;99.90
12254;DHT22;6189;52.526;13.390;2023-03-31T04:20:25;13.30;99.90
12254;DHT22;6189;52.526;13.390;2023-03-31T04:23:13;13.30;99.90
12254;DHT22;6189;52.526;13.390;2023-03-31T04:25:59;13.30;99.90
12254;DHT22;6189;52.526;13.390;2023-03-31T04:28:46;13.20;99.90
12254;DHT22;6189;52.526;13.390;2023-03-31T04:31:34;13.10;99.90
12254;DHT22;6189;52.526;13.390;2023-03-31T04:34:22;13.00;99.90
12254;DHT22;6189;52.526;13.390;2023-03-31T04:37:09;12.90;99.90
12254;DHT22;6189;52.526;13.390;2023-03-31T04:39:55;12.90;99.90
12254;DHT22;6189;52.526;13.390;2023-03-31T04:42:42;12.90;99.90
12254;DHT22;6189;52.526;13.390;2023-03-31T04:45:29;13.00;99.90
12254;DHT22;6189;52.526;13.390;2023-03-31T04:48:15;13.10;99.90
12254;DHT22;6189;52.526;13.390;2023-03-31T04:51:01;13.20;99.90
12254;DHT22;6189;52.526;13.390;2023-03-31T04:53:46;13.00;99.90
12254;DHT22;6189;52.526;13.390;2023-03-31T04:56:32;13.10;99.90
12254;DHT22;6189;52.526;13.390;2023-03-31T04:59:18;13.00;99.90
12254;DHT22;6189;52.526;13.390;2023-03-31T05:02:05;13.00;99.90
12254;DHT22;6189;52.526;13.390;2023-03-31T05:04:51;13.00;99.90
12254;DHT22;6189;52.526;13.390;2023-03-31T05:07:37;13.00;99.90
12254;DHT22;6189;52.526;13.390;2023-03-31T05:10:23;13.00;99.90
12254;DHT22;6189;52.526;13.390;2023-03-31T05:13:09;12.90;99.90
12254;DHT22;6189;52.526;13.390;2023-03-31T05:15:55;13.10;99.90
12254;DHT22;6189;52.526;13.390;2023-03-31T05:18:42;13.00;99.90
12254;DHT22;6189;52.526;13.390;2023-03-31T05:21:28;13.10;99.90
12254;DHT22;6189;52.526;13.390;2023-03-31T05:24:14;13.20;99.90
12254;DHT22;6189;52.526;13.390;2023-03-31T05:27:00;13.20;99.90
12254;DHT22;6189;52.526;13.390;2023-03-31T05:29:46;13.20;99.90
12254;DHT22;6189;52.526;13.390;2023-03-31T05:32:31;13.10;99.90
12254;DHT22;6189;52.526;13.390;2023-03-31T05:35:19;13.20;99.90
12254;DHT22;6189;52.526;13.390;2023-03-31T05:38:04;13.10;99.90
12254;DHT22;6189;52.526;13.390;2023-03-31T05:40:51;13.00;99.90
12254;DHT22;6189;52.526;13.390;2023-03-31T05:43:37;12.90;99.90
12254;DHT22;6189;52.526;13.390;2023-03-31T05:46:23;12.90;99.90
12254;DHT22;6189;52.526;13.390;2023-03-31T05:49:10;12.90;99.90
12254;DHT22;6189;52.526;13.390;2023-03-31T05:51:56;12.90;99.90
12254;DHT22;6189;52.526;13.390;2023-03-31T05:54:42;12.90;99.90
12254;DHT22;6189;52.526;13.390;2023-03-31T05:57:28;12.90;99.90
12254;DHT22;6189;52.526;13.390;2023-03-31T06:00:14;13.00;99.90
12254;DHT22;6189;52.526;13.390;2023-03-31T06:03:01;12.90;99.90
12254;DHT22;6189;52.526;13.390;2023-03-31T06:05:47;13.00;99.90
12254;DHT22;6189;52.526;13.390;2023-03-31T06:08:35;13.10;99.90
12254;DHT22;6189;52.526;13.390;2023-03-31T06:11:21;13.00;99.90
12254;DHT22;6189;52.526;13.390;2023-03-31T06:14:07;13.00;99.90
12254;DHT22;6189;52.526;13.390;2023-03-31T06:16:53;12.90;99.90
12254;DHT22;6189;52.526;13.390;2023-03-31T06:19:38;12.80;99.90
12254;DHT22;6189;52.526;13.390;2023-03-31T06:22:24;12.80;99.90
12254;DHT22;6189;52.526;13.390;2023-03-31T06:25:11;12.80;99.90
12254;DHT22;6189;52.526;13.390;2023-03-31T06:27:56;12.70;99.90
12254;DHT22;6189;52.526;13.390;2023-03-31T06:30:42;12.80;99.90
12254;DHT22;6189;52.526;13.390;2023-03-31T06:33:28;12.80;99.90
12254;DHT22;6189;52.526;13.390;2023-03-31T06:36:16;13.00;99.90
12254;DHT22;6189;52.526;13.390;2023-03-31T06:39:02;12.90;99.90
12254;DHT22;6189;52.526;13.390;2023-03-31T06:41:49;12.90;99.90
12254;DHT22;6189;52.526;13.390;2023-03-31T06:44:34;13.20;99.90
12254;DHT22;6189;52.526;13.390;2023-03-31T06:47:20;13.20;99.90
12254;DHT22;6189;52.526;13.390;2023-03-31T06:50:07;13.10;99.90
12254;DHT22;6189;52.526;13.390;2023-03-31T06:52:53;13.20;99.90
12254;DHT22;6189;52.526;13.390;2023-03-31T06:55:42;13.20;99.90
12254;DHT22;6189;52.526;13.390;2023-03-31T06:58:29;13.20;99.90
12254;DHT22;6189;52.526;13.390;2023-03-31T07:01:14;13.30;99.90
12254;DHT22;6189;52.526;13.390;2023-03-31T07:04:00;13.30;99.90
12254;DHT22;6189;52.526;13.390;2023-03-31T07:06:46;13.40;99.90
12254;DHT22;6189;52.526;13.390;2023-03-31T07:09:32;13.40;99.90
12254;DHT22;6189;52.526;13.390;2023-03-31T07:12:18;13.40;99.90
12254;DHT22;6189;52.526;13.390;2023-03-31T07:15:06;13.50;99.90
12254;DHT22;6189;52.526;13.390;2023-03-31T07:17:52;13.50;99.90
12254;DHT22;6189;52.526;13.390;2023-03-31T07:20:47;13.60;99.90
12254;DHT22;6189;52.526;13.390;2023-03-31T07:23:33;13.60;99.90
12254;DHT22;6189;52.526;13.390;2023-03-31T07:26:19;13.70;99.90
12254;DHT22;6189;52.526;13.390;2023-03-31T07:29:05;13.70;99.90
12254;DHT22;6189;52.526;13.390;2023-03-31T07:31:52;13.70;99.90
12254;DHT22;6189;52.526;13.390;2023-03-31T07:34:38;13.70;99.90
12254;DHT22;6189;52.526;13.390;2023-03-31T07:37:24;13.80;99.90
12254;DHT22;6189;52.526;13.390;2023-03-31T07:40:12;13.80;99.90
12254;DHT22;6189;52.526;13.390;2023-03-31T07:42:59;13.90;99.90
12254;DHT22;6189;52.526;13.390;2023-03-31T07:45:45;13.80;99.90
12254;DHT22;6189;52.526;13.390;2023-03-31T07:48:32;13.90;99.90
12254;DHT22;6189;52.526;13.390;2023-03-31T07:51:21;14.00;99.90
12254;DHT22;6189;52.526;13.390;2023-03-31T07:54:07;14.10;99.90
12254;DHT22;6189;52.526;13.390;2023-03-31T07:56:53;14.10;99.90
12254;DHT22;6189;52.526;13.390;2023-03-31T07:59:39;14.20;99.90
12254;DHT22;6189;52.526;13.390;2023-03-31T08:02:24;14.30;99.90
12254;DHT22;6189;52.526;13.390;2023-03-31T08:05:14;14.20;99.90
12254;DHT22;6189;52.526;13.390;2023-03-31T08:08:00;14.30;99.90
12254;DHT22;6189;52.526;13.390;2023-03-31T08:10:46;14.40;99.90
12254;DHT22;6189;52.526;13.390;2023-03-31T08:13:31;14.60;99.90
12254;DHT22;6189;52.526;13.390;2023-03-31T08:16:17;14.60;99.90
12254;DHT22;6189;52.526;13.390;2023-03-31T08:19:03;14.70;99.90
12254;DHT22;6189;52.526;13.390;2023-03-31T08:21:50;14.60;99.90
12254;DHT22;6189;52.526;13.390;2023-03-31T08:24:36;14.70;99.90
12254;DHT22;6189;52.526;13.390;2023-03-31T08:27:22;14.70;99.90
12254;DHT22;6189;52.526;13.390;2023-03-31T08:30:10;14.80;99.90
12254;DHT22;6189;52.526;13.390;2023-03-31T08:32:56;14.90;99.90
12254;DHT22;6189;52.526;13.390;2023-03-31T08:35:42;15.00;99.90
12254;DHT22;6189;52.526;13.390;2023-03-31T08:38:29;15.00;99.90
12254;DHT22;6189;52.526;13.390;2023-03-31T08:41:26;15.00;99.90
12254;DHT22;6189;52.526;13.390;2023-03-31T08:44:19;15.00;99.90
12254;DHT22;6189;52.526;13.390;2023-03-31T08:47:09;15.00;99.90
12254;DHT22;6189;52.526;13.390;2023-03-31T08:50:05;15.00;99.90
12254;DHT22;6189;52.526;13.390;2023-03-31T08:52:55;15.10;99.90
12254;DHT22;6189;52.526;13.390;2023-03-31T08:55:48;15.10;99.90
12254;DHT22;6189;52.526;13.390;2023-03-31T08:58:38;15.10;99.90
12254;DHT22;6189;52.526;13.390;2023-03-31T09:01:32;15.20;99.90
12254;DHT22;6189;52.526;13.390;2023-03-31T09:04:29;15.20;99.90
12254;DHT22;6189;52.526;13.390;2023-03-31T09:07:31;15.20;99.90
12254;DHT22;6189;52.526;13.390;2023-03-31T09:10:29;15.30;99.90
12254;DHT22;6189;52.526;13.390;2023-03-31T09:13:40;15.20;99.90
12254;DHT22;6189;52.526;13.390;2023-03-31T09:16:32;15.30;99.90
12254;DHT22;6189;52.526;13.390;2023-03-31T09:19:26;15.30;99.90
12254;DHT22;6189;52.526;13.390;2023-03-31T09:22:17;15.50;99.90
12254;DHT22;6189;52.526;13.390;2023-03-31T09:25:07;15.60;99.90
12254;DHT22;6189;52.526;13.390;2023-03-31T09:27:56;15.70;99.90
12254;DHT22;6189;52.526;13.390;2023-03-31T09:30:46;15.90;99.90
12254;DHT22;6189;52.526;13.390;2023-03-31T09:33:33;16.10;99.90
12254;DHT22;6189;52.526;13.390;2023-03-31T09:36:20;16.40;99.90
12254;DHT22;6189;52.526;13.390;2023-03-31T09:39:12;16.30;99.90
12254;DHT22;6189;52.526;13.390;2023-03-31T09:41:59;16.30;99.90
12254;DHT22;6189;52.526;13.390;2023-03-31T09:44:48;16.40;99.90
12254;DHT22;6189;52.526;13.390;2023-03-31T09:47:38;16.10;99.90
12254;DHT22;6189;52.526;13.390;2023-03-31T09:50:30;16.10;99.90
12254;DHT22;6189;52.526;13.390;2023-03-31T09:53:22;16.00;99.90
12254;DHT22;6189;52.526;13.390;2023-03-31T09:56:31;16.00;99.90
12254;DHT22;6189;52.526;13.390;2023-03-31T09:59:19;16.00;99.90
12254;DHT22;6189;52.526;13.390;2023-03-31T10:02:23;15.90;99.90
12254;DHT22;6189;52.526;13.390;2023-03-31T10:05:24;15.90;99.90
12254;DHT22;6189;52.526;13.390;2023-03-31T10:08:19;16.00;99.90
12254;DHT22;6189;52.526;13.390;2023-03-31T10:11:10;16.00;99.90
12254;DHT22;6189;52.526;13.390;2023-03-31T10:14:00;16.00;99.90
12254;DHT22;6189;52.526;13.390;2023-03-31T10:16:49;15.90;99.90
12254;DHT22;6189;52.526;13.390;2023-03-31T10:19:35;15.80;99.90
12254;DHT22;6189;52.526;13.390;2023-03-31T10:22:30;15.70;99.90
12254;DHT22;6189;52.526;13.390;2023-03-31T10:25:18;15.50;99.90
12254;DHT22;6189;52.526;13.390;2023-03-31T10:28:05;15.50;99.90
12254;DHT22;6189;52.526;13.390;2023-03-31T10:30:51;15.50;99.90
12254;DHT22;6189;52.526;13.390;2023-03-31T10:33:41;15.50;99.90
12254;DHT22;6189;52.526;13.390;2023-03-31T10:36:29;15.60;99.90
12254;DHT22;6189;52.526;13.390;2023-03-31T10:39:17;15.50;99.90
12254;DHT22;6189;52.526;13.390;2023-03-31T10:42:03;15.50;99.90
12254;DHT22;6189;52.526;13.390;2023-03-31T10:44:49;15.50;99.90
12254;DHT22;6189;52.526;13.390;2023-03-31T10:47:37;15.50;99.90
12254;DHT22;6189;52.526;13.390;2023-03-31T10:50:27;15.50;99.90
12254;DHT22;6189;52.526;13.390;2023-03-31T10:53:14;15.60;99.90
12254;DHT22;6189;52.526;13.390;2023-03-31T10:56:12;15.60;99.90
12254;DHT22;6189;52.526;13.390;2023-03-31T10:59:10;15.50;99.90
12254;DHT22;6189;52.526;13.390;2023-03-31T11:02:28;15.50;99.90
12254;DHT22;6189;52.526;13.390;2023-03-31T11:05:27;15.50;99.90
12254;DHT22;6189;52.526;13.390;2023-03-31T11:08:31;15.60;99.90
12254;DHT22;6189;52.526;13.390;2023-03-31T11:11:36;15.70;99.90
12254;DHT22;6189;52.526;13.390;2023-03-31T11:14:33;15.80;99.90
12254;DHT22;6189;52.526;13.390;2023-03-31T11:17:29;16.00;99.90
12254;DHT22;6189;52.526;13.390;2023-03-31T11:20:24;16.10;99.90
12254;DHT22;6189;52.526;13.390;2023-03-31T11:23:18;16.20;99.90
12254;DHT22;6189;52.526;13.390;2023-03-31T11:26:10;16.40;99.90
12254;DHT22;6189;52.526;13.390;2023-03-31T11:29:05;16.50;99.90
12254;DHT22;6189;52.526;13.390;2023-03-31T11:32:07;16.60;99.90
12254;DHT22;6189;52.526;13.390;2023-03-31T11:35:10;16.50;99.90
12254;DHT22;6189;52.526;13.390;2023-03-31T11:38:18;16.60;99.90
12254;DHT22;6189;52.526;13.390;2023-03-31T11:41:11;16.50;99.90
12254;DHT22;6189;52.526;13.390;2023-03-31T11:44:01;16.40;99.90
12254;DHT22;6189;52.526;13.390;2023-03-31T11:46:51;16.40;99.90
12254;DHT22;6189;52.526;13.390;2023-03-31T11:49:40;16.60;99.90
12254;DHT22;6189;52.526;13.390;2023-03-31T11:52:32;16.60;99.90
12254;DHT22;6189;52.526;13.390;2023-03-31T11:55:21;16.60;99.90
12254;DHT22;6189;52.526;13.390;2023-03-31T11:58:12;16.60;99.90
12254;DHT22;6189;52.526;13.390;2023-03-31T12:01:06;16.50;99.90
12254;DHT22;6189;52.526;13.390;2023-03-31T12:04:00;16.50;99.90
12254;DHT22;6189;52.526;13.390;2023-03-31T12:06:46;16.60;99.90
12254;DHT22;6189;52.526;13.390;2023-03-31T12:09:37;16.40;99.90
12254;DHT22;6189;52.526;13.390;2023-03-31T12:12:28;16.20;99.90
12254;DHT22;6189;52.526;13.390;2023-03-31T12:15:18;16.20;99.90
12254;DHT22;6189;52.526;13.390;2023-03-31T12:18:12;16.40;99.90
12254;DHT22;6189;52.526;13.390;2023-03-31T12:21:02;16.40;99.90
12254;DHT22;6189;52.526;13.390;2023-03-31T12:23:49;16.30;99.90
12254;DHT22;6189;52.526;13.390;2023-03-31T12:26:41;16.20;99.90
12254;DHT22;6189;52.526;13.390;2023-03-31T12:29:31;16.10;99.90
12254;DHT22;6189;52.526;13.390;2023-03-31T12:32:21;16.10;99.90
12254;DHT22;6189;52.526;13.390;2023-03-31T12:35:17;16.10;99.90
12254;DHT22;6189;52.526;13.390;2023-03-31T12:38:28;16.10;99.90
12254;DHT22;6189;52.526;13.390;2023-03-31T12:41:22;16.10;99.90
12254;DHT22;6189;52.526;13.390;2023-03-31T12:44:22;16.00;99.90
12254;DHT22;6189;52.526;13.390;2023-03-31T12:47:34;15.90;99.90
12254;DHT22;6189;52.526;13.390;2023-03-31T12:50:43;15.90;99.90
12254;DHT22;6189;52.526;13.390;2023-03-31T12:53:37;15.80;99.90
12254;DHT22;6189;52.526;13.390;2023-03-31T12:56:23;15.70;99.90
12254;DHT22;6189;52.526;13.390;2023-03-31T12:59:26;15.50;99.90
12254;DHT22;6189;52.526;13.390;2023-03-31T13:02:23;15.30;99.90
12254;DHT22;6189;52.526;13.390;2023-03-31T13:05:44;15.00;99.90
12254;DHT22;6189;52.526;13.390;2023-03-31T13:08:54;14.90;99.90
12254;DHT22;6189;52.526;13.390;2023-03-31T13:11:40;14.60;99.90
12254;DHT22;6189;52.526;13.390;2023-03-31T13:14:34;14.60;99.90
12254;DHT22;6189;52.526;13.390;2023-03-31T13:17:27;14.60;99.90
12254;DHT22;6189;52.526;13.390;2023-03-31T13:20:30;14.60;99.90
12254;DHT22;6189;52.526;13.390;2023-03-31T13:23:20;14.70;99.90
12254;DHT22;6189;52.526;13.390;2023-03-31T13:26:39;14.80;99.90
12254;DHT22;6189;52.526;13.390;2023-03-31T13:29:37;14.80;99.90
12254;DHT22;6189;52.526;13.390;2023-03-31T13:32:24;14.80;99.90
12254;DHT22;6189;52.526;13.390;2023-03-31T13:35:17;14.70;99.90
12254;DHT22;6189;52.526;13.390;2023-03-31T13:38:11;14.80;99.90
12254;DHT22;6189;52.526;13.390;2023-03-31T13:41:09;14.70;99.90
12254;DHT22;6189;52.526;13.390;2023-03-31T13:50:56;14.80;99.90
12254;DHT22;6189;52.526;13.390;2023-03-31T13:57:38;14.80;99.90
12254;DHT22;6189;52.526;13.390;2023-03-31T14:00:40;14.60;99.90
12254;DHT22;6189;52.526;13.390;2023-03-31T14:03:44;14.40;99.90
12254;DHT22;6189;52.526;13.390;2023-03-31T14:06:35;14.40;99.90
12254;DHT22;6189;52.526;13.390;2023-03-31T14:09:25;14.40;99.90
12254;DHT22;6189;52.526;13.390;2023-03-31T14:12:28;14.40;99.90
12254;DHT22;6189;52.526;13.390;2023-03-31T14:15:17;14.20;99.90
12254;DHT22;6189;52.526;13.390;2023-03-31T14:18:05;14.20;99.90
12254;DHT22;6189;52.526;13.390;2023-03-31T14:21:14;14.10;99.90
12254;DHT22;6189;52.526;13.390;2023-03-31T14:24:12;13.90;99.90
12254;DHT22;6189;52.526;13.390;2023-03-31T14:27:04;13.80;99.90
12254;DHT22;6189;52.526;13.390;2023-03-31T14:29:59;14.00;99.90
12254;DHT22;6189;52.526;13.390;2023-03-31T14:32:53;13.80;99.90
12254;DHT22;6189;52.526;13.390;2023-03-31T14:35:52;13.90;99.90
12254;DHT22;6189;52.526;13.390;2023-03-31T14:38:41;13.80;99.90
12254;DHT22;6189;52.526;13.390;2023-03-31T14:41:27;13.80;99.90
12254;DHT22;6189;52.526;13.390;2023-03-31T14:44:17;13.90;99.90
12254;DHT22;6189;52.526;13.390;2023-03-31T14:47:13;14.10;99.90
12254;DHT22;6189;52.526;13.390;2023-03-31T14:50:02;13.90;99.90
12254;DHT22;6189;52.526;13.390;2023-03-31T14:52:51;13.90;99.90
12254;DHT22;6189;52.526;13.390;2023-03-31T14:55:36;13.60;99.90
12254;DHT22;6189;52.526;13.390;2023-03-31T14:58:25;13.60;99.90
12254;DHT22;6189;52.526;13.390;2023-03-31T15:01:16;13.80;99.90
12254;DHT22;6189;52.526;13.390;2023-03-31T15:04:07;13.90;99.90
12254;DHT22;6189;52.526;13.390;2023-03-31T15:06:55;14.00;99.90
12254;DHT22;6189;52.526;13.390;2023-03-31T15:09:45;14.10;99.90
12254;DHT22;6189;52.526;13.390;2023-03-31T15:12:33;14.20;99.90
12254;DHT22;6189;52.526;13.390;2023-03-31T15:15:21;14.00;99.90
12254;DHT22;6189;52.526;13.390;2023-03-31T15:18:10;13.90;99.90
12254;DHT22;6189;52.526;13.390;2023-03-31T15:20:57;14.00;99.90
12254;DHT22;6189;52.526;13.390;2023-03-31T15:23:43;13.90;99.90
12254;DHT22;6189;52.526;13.390;2023-03-31T15:26:31;13.90;99.90
12254;DHT22;6189;52.526;13.390;2023-03-31T15:29:21;14.00;99.90
12254;DHT22;6189;52.526;13.390;2023-03-31T15:32:13;14.10;99.90
12254;DHT22;6189;52.526;13.390;2023-03-31T15:34:59;14.00;99.90
12254;DHT22;6189;52.526;13.390;2023-03-31T15:37:49;13.90;99.90
12254;DHT22;6189;52.526;13.390;2023-03-31T15:40:38;13.80;99.90
12254;DHT22;6189;52.526;13.390;2023-03-31T15:43:28;13.90;99.90
12254;DHT22;6189;52.526;13.390;2023-03-31T15:46:18;13.80;99.90
12254;DHT22;6189;52.526;13.390;2023-03-31T15:49:05;13.80;99.90
12254;DHT22;6189;52.526;13.390;2023-03-31T15:52:02;13.90;99.90
12254;DHT22;6189;52.526;13.390;2023-03-31T15:54:51;13.80;99.90
12254;DHT22;6189;52.526;13.390;2023-03-31T15:57:36;13.80;99.90
12254;DHT22;6189;52.526;13.390;2023-03-31T16:00:40;13.80;99.90
12254;DHT22;6189;52.526;13.390;2023-03-31T16:03:33;13.70;99.90
12254;DHT22;6189;52.526;13.390;2023-03-31T16:06:34;13.80;99.90
12254;DHT22;6189;52.526;13.390;2023-03-31T16:09:24;13.90;99.90
12254;DHT22;6189;52.526;13.390;2023-03-31T16:12:16;14.00;99.90
12254;DHT22;6189;52.526;13.390;2023-03-31T16:15:06;14.00;99.90
12254;DHT22;6189;52.526;13.390;2023-03-31T16:17:55;14.00;99.90
12254;DHT22;6189;52.526;13.390;2023-03-31T16:20:49;14.20;99.90
12254;DHT22;6189;52.526;13.390;2023-03-31T16:23:37;14.10;99.90
12254;DHT22;6189;52.526;13.390;2023-03-31T16:26:28;13.90;99.90
12254;DHT22;6189;52.526;13.390;2023-03-31T16:29:20;14.00;99.90
12254;DHT22;6189;52.526;13.390;2023-03-31T16:32:09;14.00;99.90
12254;DHT22;6189;52.526;13.390;2023-03-31T16:34:57;14.00;99.90
12254;DHT22;6189;52.526;13.390;2023-03-31T16:37:43;14.00;99.90
12254;DHT22;6189;52.526;13.390;2023-03-31T16:40:33;13.90;99.90
12254;DHT22;6189;52.526;13.390;2023-03-31T16:43:21;13.80;99.90
12254;DHT22;6189;52.526;13.390;2023-03-31T16:46:08;13.90;99.90
12254;DHT22;6189;52.526;13.390;2023-03-31T16:48:53;14.00;99.90
12254;DHT22;6189;52.526;13.390;2023-03-31T16:51:39;14.00;99.90
12254;DHT22;6189;52.526;13.390;2023-03-31T16:54:25;14.00;99.90
12254;DHT22;6189;52.526;13.390;2023-03-31T16:57:10;14.00;99.90
12254;DHT22;6189;52.526;13.390;2023-03-31T16:59:57;14.10;99.90
12254;DHT22;6189;52.526;13.390;2023-03-31T17:02:44;14.00;99.90
12254;DHT22;6189;52.526;13.390;2023-03-31T17:05:31;14.00;99.90
12254;DHT22;6189;52.526;13.390;2023-03-31T17:08:23;14.00;99.90
12254;DHT22;6189;52.526;13.390;2023-03-31T17:11:10;14.00;99.90
12254;DHT22;6189;52.526;13.390;2023-03-31T17:13:57;14.00;99.90
12254;DHT22;6189;52.526;13.390;2023-03-31T17:16:44;13.90;99.90
12254;DHT22;6189;52.526;13.390;2023-03-31T17:19:31;13.80;99.90
12254;DHT22;6189;52.526;13.390;2023-03-31T17:22:17;13.80;99.90
12254;DHT22;6189;52.526;13.390;2023-03-31T17:25:03;13.80;99.90
12254;DHT22;6189;52.526;13.390;2023-03-31T17:27:51;13.90;99.90
12254;DHT22;6189;52.526;13.390;2023-03-31T17:30:38;13.90;99.90
12254;DHT22;6189;52.526;13.390;2023-03-31T17:33:27;13.90;99.90
12254;DHT22;6189;52.526;13.390;2023-03-31T17:36:14;13.90;99.90
12254;DHT22;6189;52.526;13.390;2023-03-31T17:39:00;13.90;99.90
12254;DHT22;6189;52.526;13.390;2023-03-31T17:41:45;13.90;99.90
12254;DHT22;6189;52.526;13.390;2023-03-31T17:44:31;13.80;99.90
12254;DHT22;6189;52.526;13.390;2023-03-31T17:47:18;13.80;99.90
12254;DHT22;6189;52.526;13.390;2023-03-31T17:50:04;13.80;99.90
12254;DHT22;6189;52.526;13.390;2023-03-31T17:52:53;13.80;99.90
12254;DHT22;6189;52.526;13.390;2023-03-31T17:55:39;13.80;99.90
12254;DHT22;6189;52.526;13.390;2023-03-31T17:58:24;13.90;99.90
12254;DHT22;6189;52.526;13.390;2023-03-31T18:01:11;13.90;99.90
12254;DHT22;6189;52.526;13.390;2023-03-31T18:03:57;13.80;99.90
12254;DHT22;6189;52.526;13.390;2023-03-31T18:06:43;13.90;99.90
12254;DHT22;6189;52.526;13.390;2023-03-31T18:09:32;13.90;99.90
12254;DHT22;6189;52.526;13.390;2023-03-31T18:12:18;13.90;99.90